createdAt,value
2022-10-22T00:00:56.517Z,100749.50
2022-10-22T00:03:23.238Z,100762.44
2022-10-22T00:05:49.712Z,100773.34
2022-10-22T00:08:16.203Z,100756.13
2022-10-22T00:10:43.993Z,100753.63
2022-10-22T00:13:11.419Z,100752.94
2022-10-22T00:15:38.185Z,100744.75
2022-10-22T00:18:04.930Z,100750.38
2022-10-22T00:20:31.656Z,100742.41
2022-10-22T00:22:58.149Z,100742.41
2022-10-22T00:25:24.732Z,100732.53
2022-10-22T00:27:52.593Z,100740.03
2022-10-22T00:30:19.329Z,100728.28
2022-10-22T00:32:45.800Z,100725.78
2022-10-22T00:35:12.301Z,100731.38
2022-10-22T00:37:38.822Z,100722.56
2022-10-22T00:40:06.185Z,100726.47
2022-10-22T00:42:32.648Z,100718.50
2022-10-22T00:45:16.088Z,100720.56
2022-10-22T00:47:45.478Z,100713.59
2022-10-22T00:50:17.615Z,100715.66
2022-10-22T00:52:44.463Z,100724.19
2022-10-22T00:55:12.384Z,100737.97
2022-10-22T00:57:39.346Z,100749.03
2022-10-22T01:00:09.372Z,100746.50
2022-10-22T01:02:36.052Z,100755.88
2022-10-22T01:05:03.795Z,100749.59
2022-10-22T01:07:30.630Z,100742.63
2022-10-22T01:10:05.934Z,100763.53
2022-10-22T01:12:43.624Z,100771.91
2022-10-22T01:15:19.480Z,100759.28
2022-10-22T01:17:54.239Z,100754.88
2022-10-22T01:20:44.409Z,100752.16
2022-10-22T01:23:26.451Z,100746.03
2022-10-22T01:25:58.559Z,100733.47
2022-10-22T01:28:43.014Z,100742.28
2022-10-22T01:31:13.322Z,100732.44
2022-10-22T01:33:40.679Z,100737.88
2022-10-22T01:36:08.239Z,100734.31
2022-10-22T01:38:36.070Z,100731.75
2022-10-22T01:41:02.879Z,100739.06
2022-10-22T01:43:29.403Z,100736.72
2022-10-22T01:46:00.793Z,100735.00
2022-10-22T01:48:39.443Z,100746.91
2022-10-22T01:51:22.273Z,100741.69
2022-10-22T01:53:54.158Z,100746.25
2022-10-22T01:56:39.028Z,100742.84
2022-10-22T01:59:12.809Z,100734.91
2022-10-22T02:01:48.156Z,100738.63
2022-10-22T02:04:20.233Z,100751.56
2022-10-22T02:06:50.608Z,100757.34
2022-10-22T02:09:19.993Z,100756.50
2022-10-22T02:11:48.541Z,100760.44
2022-10-22T02:14:17.658Z,100760.78
2022-10-22T02:16:48.139Z,100760.78
2022-10-22T02:19:19.639Z,100757.19
2022-10-22T02:21:46.209Z,100742.09
2022-10-22T02:24:13.157Z,100745.84
2022-10-22T02:26:44.712Z,100748.75
2022-10-22T02:29:15.329Z,100748.91
2022-10-22T02:31:46.794Z,100751.63
2022-10-22T02:34:24.185Z,100749.94
2022-10-22T02:36:51.500Z,100746.56
2022-10-22T02:39:20.746Z,100752.16
2022-10-22T02:41:48.383Z,100757.78
2022-10-22T02:44:14.960Z,100755.25
2022-10-22T02:46:43.263Z,100752.69
2022-10-22T02:49:11.186Z,100751.84
2022-10-22T02:51:37.703Z,100752.84
2022-10-22T02:54:04.270Z,100754.75
2022-10-22T02:56:30.787Z,100756.44
2022-10-22T02:58:57.314Z,100754.75
2022-10-22T03:01:23.932Z,100749.47
2022-10-22T03:03:50.740Z,100737.91
2022-10-22T03:06:18.751Z,100746.75
2022-10-22T03:08:45.683Z,100740.63
2022-10-22T03:11:12.235Z,100737.91
2022-10-22T03:13:38.724Z,100736.25
2022-10-22T03:16:05.935Z,100738.97
2022-10-22T03:18:32.429Z,100737.06
2022-10-22T03:21:07.748Z,100737.06
2022-10-22T03:23:36.153Z,100737.91
2022-10-22T03:26:03.645Z,100742.50
2022-10-22T03:28:30.295Z,100739.97
2022-10-22T03:30:56.745Z,100737.44
2022-10-22T03:33:23.245Z,100741.16
2022-10-22T03:35:49.750Z,100742.22
2022-10-22T03:38:16.465Z,100737.78
2022-10-22T03:40:45.425Z,100735.91
2022-10-22T03:43:12.209Z,100747.81
2022-10-22T03:48:10.199Z,100761.56
2022-10-22T03:50:36.673Z,100759.91
2022-10-22T03:53:03.816Z,100761.09
2022-10-22T03:55:30.460Z,100770.25
2022-10-22T03:57:58.290Z,100771.31
2022-10-22T04:00:24.751Z,100775.88
2022-10-22T04:02:51.449Z,100774.84
2022-10-22T04:05:17.970Z,100776.91
2022-10-22T04:07:44.568Z,100776.91
2022-10-22T04:10:11.077Z,100778.09
2022-10-22T04:12:37.630Z,100786.44
2022-10-22T04:15:06.446Z,100800.03
2022-10-22T04:17:34.486Z,100802.06
2022-10-22T04:20:01.509Z,100799.34
2022-10-22T04:22:28.178Z,100794.09
2022-10-22T04:24:54.810Z,100795.97
2022-10-22T04:27:21.394Z,100795.97
2022-10-22T04:29:47.854Z,100791.53
2022-10-22T04:32:15.776Z,100787.13
2022-10-22T04:34:42.318Z,100785.41
2022-10-22T04:37:08.802Z,100784.59
2022-10-22T04:39:35.282Z,100782.03
2022-10-22T04:42:01.819Z,100781.19
2022-10-22T04:44:28.304Z,100774.91
2022-10-22T04:46:54.821Z,100775.91
2022-10-22T04:49:22.682Z,100773.19
2022-10-22T04:51:49.219Z,100769.81
2022-10-22T04:54:15.824Z,100765.38
2022-10-22T04:56:42.372Z,100765.56
2022-10-22T04:59:10.661Z,100775.75
2022-10-22T05:01:42.658Z,100772.19
2022-10-22T05:04:12.417Z,100779.66
2022-10-22T05:06:40.739Z,100780.69
2022-10-22T05:09:11.531Z,100784.44
2022-10-22T05:11:40.855Z,100789.03
2022-10-22T05:14:08.583Z,100786.47
2022-10-22T05:16:35.800Z,100793.78
2022-10-22T05:19:03.785Z,100794.81
2022-10-22T05:21:30.843Z,100794.13
2022-10-22T05:23:58.926Z,100794.31
2022-10-22T05:26:26.020Z,100794.47
2022-10-22T05:28:52.873Z,100801.78
2022-10-22T05:31:20.661Z,100803.81
2022-10-22T05:33:47.411Z,100810.28
2022-10-22T05:36:15.735Z,100806.53
2022-10-22T05:38:42.393Z,100810.28
2022-10-22T05:41:12.708Z,100803.13
2022-10-22T05:43:39.900Z,100805.16
2022-10-22T05:46:08.224Z,100810.59
2022-10-22T05:48:35.413Z,100809.94
2022-10-22T05:51:02.300Z,100801.09
2022-10-22T05:53:28.771Z,100801.28
2022-10-22T05:55:55.237Z,100803.31
2022-10-22T05:58:23.054Z,100813.31
2022-10-22T06:00:49.555Z,100822.81
2022-10-22T06:03:16.073Z,100823.84
2022-10-22T06:05:42.660Z,100820.47
2022-10-22T06:08:14.501Z,100826.91
2022-10-22T06:10:44.678Z,100818.91
2022-10-22T06:13:11.180Z,100819.91
2022-10-22T06:15:39.022Z,100826.06
2022-10-22T06:18:05.608Z,100825.16
2022-10-22T06:20:34.120Z,100824.19
2022-10-22T06:23:00.699Z,100831.31
2022-10-22T06:25:27.195Z,100828.25
2022-10-22T06:27:53.651Z,100843.56
2022-10-22T06:30:20.182Z,100843.38
2022-10-22T06:32:47.993Z,100840.47
2022-10-22T06:35:14.722Z,100844.75
2022-10-22T06:37:41.475Z,100842.03
2022-10-22T06:40:09.113Z,100852.56
2022-10-22T06:42:35.649Z,100846.97
2022-10-22T06:47:33.707Z,100848.31
2022-10-22T06:50:01.721Z,100849.66
2022-10-22T06:52:28.220Z,100854.75
2022-10-22T06:54:54.749Z,100853.41
2022-10-22T06:57:21.529Z,100856.63
2022-10-22T06:59:48.019Z,100856.09
2022-10-22T07:02:14.512Z,100859.34
2022-10-22T07:04:41.006Z,100861.53
2022-10-22T07:07:08.858Z,100862.91
2022-10-22T07:09:35.345Z,100859.66
2022-10-22T07:12:01.857Z,100867.13
2022-10-22T07:14:28.378Z,100864.75
2022-10-22T07:16:55.089Z,100860.50
2022-10-22T07:19:21.686Z,100871.72
2022-10-22T07:21:48.209Z,100884.78
2022-10-22T07:24:16.046Z,100892.41
2022-10-22T07:26:42.587Z,100898.19
2022-10-22T07:29:09.094Z,100899.53
2022-10-22T07:31:35.678Z,100901.56
2022-10-22T07:34:02.386Z,100910.06
2022-10-22T07:36:28.954Z,100911.41
2022-10-22T07:38:57.379Z,100899.16
2022-10-22T07:41:26.295Z,100899.50
2022-10-22T07:43:52.935Z,100902.56
2022-10-22T07:46:20.133Z,100903.91
2022-10-22T07:48:46.987Z,100911.38
2022-10-22T07:51:14.028Z,100910.84
2022-10-22T07:53:40.838Z,100919.50
2022-10-22T07:56:07.814Z,100910.81
2022-10-22T07:58:35.949Z,100919.50
2022-10-22T08:01:03.532Z,100927.94
2022-10-22T08:03:30.329Z,100921.13
2022-10-22T08:05:56.886Z,100926.25
2022-10-22T08:08:27.053Z,100932.19
2022-10-22T08:10:58.042Z,100940.84
2022-10-22T08:13:24.692Z,100942.19
2022-10-22T08:15:56.439Z,100944.53
2022-10-22T08:18:24.308Z,100936.88
2022-10-22T08:20:51.340Z,100938.03
2022-10-22T08:23:18.288Z,100930.16
2022-10-22T08:25:44.777Z,100939.34
2022-10-22T08:28:11.518Z,100946.78
2022-10-22T08:30:38.149Z,100950.69
2022-10-22T08:33:06.209Z,100947.25
2022-10-22T08:35:32.755Z,100955.91
2022-10-22T08:37:59.543Z,100958.94
2022-10-22T08:40:31.826Z,100953.13
2022-10-22T08:43:34.188Z,100960.75
2022-10-22T08:46:11.995Z,100957.50
2022-10-22T08:48:46.256Z,100956.13
2022-10-22T08:51:16.968Z,100967.53
2022-10-22T08:53:54.128Z,100962.53
2022-10-22T08:56:23.719Z,100974.13
2022-10-22T08:58:56.457Z,100973.75
2022-10-22T09:01:32.464Z,100976.31
2022-10-22T09:04:06.713Z,100974.72
2022-10-22T09:06:36.674Z,100976.09
2022-10-22T09:09:12.514Z,100978.22
2022-10-22T09:11:42.141Z,100974.94
2022-10-22T09:14:12.814Z,100970.81
2022-10-22T09:16:56.021Z,100976.59
2022-10-22T09:19:31.540Z,100977.28
2022-10-22T09:22:08.103Z,100988.09
2022-10-22T09:24:38.387Z,100985.69
2022-10-22T09:27:11.215Z,100979.47
2022-10-22T09:29:37.819Z,100980.59
2022-10-22T09:32:05.059Z,100993.72
2022-10-22T09:34:33.355Z,100987.88
2022-10-22T09:37:01.228Z,100993.16
2022-10-22T09:39:31.646Z,100999.47
2022-10-22T09:41:58.195Z,100994.00
2022-10-22T09:44:24.808Z,100994.84
2022-10-22T09:46:51.549Z,100999.28
2022-10-22T09:49:21.190Z,100992.97
2022-10-22T09:51:55.033Z,101001.81
2022-10-22T09:54:24.507Z,100998.72
2022-10-22T09:56:54.366Z,101002.59
2022-10-22T09:59:28.101Z,101010.22
2022-10-22T10:02:13.555Z,101007.13
2022-10-22T10:04:49.535Z,101005.53
2022-10-22T10:07:20.033Z,100999.81
2022-10-22T10:09:46.587Z,101008.38
2022-10-22T10:12:24.693Z,101008.78
2022-10-22T10:14:59.325Z,101003.22
2022-10-22T10:17:33.836Z,101000.75
2022-10-22T10:20:16.078Z,101005.00
2022-10-22T10:22:54.971Z,101005.84
2022-10-22T10:25:41.436Z,101007.34
2022-10-22T10:28:20.693Z,101017.25
2022-10-22T10:30:54.379Z,101012.44
2022-10-22T10:33:32.924Z,101003.84
2022-10-22T10:36:08.571Z,101001.41
2022-10-22T10:41:49.026Z,100994.38
2022-10-22T10:44:39.241Z,101002.94
2022-10-22T10:47:18.515Z,101001.00
2022-10-22T10:49:45.973Z,100999.06
2022-10-22T10:52:21.326Z,100994.13
2022-10-22T10:54:57.738Z,100998.00
2022-10-22T10:57:40.586Z,100997.41
2022-10-22T11:00:11.656Z,100996.41
2022-10-22T11:03:03.232Z,101002.59
2022-10-22T11:05:39.387Z,101002.06
2022-10-22T11:08:13.523Z,100995.38
2022-10-22T11:10:46.257Z,100996.56
2022-10-22T11:16:21.025Z,100993.72
2022-10-22T11:18:54.287Z,100989.09
2022-10-22T11:21:27.011Z,100992.50
2022-10-22T11:24:00.825Z,100991.91
2022-10-22T11:26:38.840Z,100990.63
2022-10-22T11:29:11.724Z,100989.84
2022-10-22T11:31:38.877Z,100987.97
2022-10-22T11:34:32.805Z,100993.03
2022-10-22T11:37:00.075Z,101000.88
2022-10-22T11:42:34.784Z,100996.69
2022-10-22T11:45:04.933Z,100992.88
2022-10-22T11:47:34.430Z,100995.84
2022-10-22T11:50:18.458Z,100995.69
2022-10-22T11:52:54.791Z,100997.63
2022-10-22T11:55:45.400Z,100993.00
2022-10-22T11:58:34.787Z,101000.22
2022-10-22T12:01:26.944Z,100998.13
2022-10-22T12:04:09.474Z,100997.31
2022-10-22T12:06:52.894Z,100995.66
2022-10-22T12:09:20.175Z,101004.06
2022-10-22T12:11:49.434Z,100994.81
2022-10-22T12:17:15.775Z,100997.38
2022-10-22T12:19:44.495Z,100993.59
2022-10-22T12:22:15.487Z,100994.25
2022-10-22T12:24:45.570Z,101002.06
2022-10-22T12:27:22.201Z,100999.53
2022-10-22T12:29:54.552Z,101002.53
2022-10-22T12:32:21.247Z,100995.94
2022-10-22T12:37:21.005Z,101002.31
2022-10-22T12:39:47.481Z,100998.09
2022-10-22T12:42:16.030Z,100991.56
2022-10-22T12:44:43.660Z,100995.34
2022-10-22T12:47:16.159Z,100994.50
2022-10-22T12:49:47.867Z,100989.88
2022-10-22T12:52:20.303Z,100991.56
2022-10-22T12:54:49.100Z,100993.88
2022-10-22T12:57:18.335Z,100983.50
2022-10-22T12:59:50.021Z,100983.31
2022-10-22T13:02:21.663Z,100985.63
2022-10-22T13:05:22.840Z,100987.56
2022-10-22T13:07:51.594Z,100985.22
2022-10-22T13:10:24.374Z,100992.22
2022-10-22T13:12:54.681Z,100986.50
2022-10-22T13:15:33.166Z,100982.69
2022-10-22T13:18:14.666Z,100991.56
2022-10-22T13:20:50.853Z,100985.66
2022-10-22T13:23:19.504Z,101001.72
2022-10-22T13:25:57.502Z,100993.03
2022-10-22T13:28:24.666Z,100993.03
2022-10-22T13:30:53.161Z,101003.00
2022-10-22T13:33:24.304Z,100998.34
2022-10-22T13:35:51.041Z,100997.06
2022-10-22T13:38:20.108Z,101008.06
2022-10-22T13:40:46.640Z,101005.31
2022-10-22T13:43:13.545Z,101003.41
2022-10-22T13:45:40.363Z,101008.06
2022-10-22T13:48:14.649Z,101002.78
2022-10-22T13:50:42.970Z,101015.03
2022-10-22T13:53:18.666Z,101014.22
2022-10-22T13:55:45.884Z,101018.88
2022-10-22T13:58:14.031Z,101005.13
2022-10-22T14:00:43.234Z,101010.16
2022-10-22T14:03:11.478Z,101011.44
2022-10-22T14:05:37.967Z,101016.09
2022-10-22T14:08:11.459Z,101019.03
2022-10-22T14:10:37.767Z,101015.66
2022-10-22T14:13:06.332Z,101014.81
2022-10-22T14:15:32.898Z,101024.13
2022-10-22T14:18:00.231Z,101019.03
2022-10-22T14:20:29.222Z,101018.81
2022-10-22T14:22:56.204Z,101024.94
2022-10-22T14:25:25.947Z,101028.31
2022-10-22T14:27:52.887Z,101033.38
2022-10-22T14:30:22.453Z,101030.22
2022-10-22T14:32:49.344Z,101030.84
2022-10-22T14:35:17.852Z,101029.75
2022-10-22T14:37:44.394Z,101031.22
2022-10-22T14:40:14.013Z,101036.72
2022-10-22T14:42:44.424Z,101035.44
2022-10-22T14:45:17.078Z,101042.38
2022-10-22T14:47:43.816Z,101033.22
2022-10-22T14:50:11.110Z,101043.78
2022-10-22T14:52:37.620Z,101046.94
2022-10-22T14:55:04.851Z,101043.97
2022-10-22T14:57:31.376Z,101034.44
2022-10-22T14:59:59.300Z,101040.53
2022-10-22T15:02:25.798Z,101041.16
2022-10-22T15:04:52.346Z,101044.50
2022-10-22T15:07:19.145Z,101043.22
2022-10-22T15:09:46.042Z,101051.19
2022-10-22T15:12:12.579Z,101046.50
2022-10-22T15:14:39.129Z,101059.16
2022-10-22T15:17:06.977Z,101051.72
2022-10-22T15:19:33.533Z,101051.47
2022-10-22T15:22:00.058Z,101049.56
2022-10-22T15:24:26.565Z,101055.63
2022-10-22T15:26:53.106Z,101061.06
2022-10-22T15:29:19.729Z,101062.91
2022-10-22T15:31:48.634Z,101064.50
2022-10-22T15:34:20.815Z,101063.63
2022-10-22T15:36:47.320Z,101060.81
2022-10-22T15:39:14.017Z,101057.38
2022-10-22T15:41:40.922Z,101069.13
2022-10-22T15:44:07.895Z,101064.81
2022-10-22T15:46:35.575Z,101071.06
2022-10-22T15:49:02.182Z,101067.63
2022-10-22T15:51:30.044Z,101071.34
2022-10-22T15:53:58.349Z,101078.59
2022-10-22T15:56:26.779Z,101078.72
2022-10-22T15:58:54.422Z,101078.84
2022-10-22T16:01:21.049Z,101078.97
2022-10-22T16:03:47.604Z,101081.78
2022-10-22T16:06:14.111Z,101077.28
2022-10-22T16:08:42.235Z,101089.16
2022-10-22T16:11:09.912Z,101082.75
2022-10-22T16:13:36.393Z,101083.50
2022-10-22T16:16:05.337Z,101093.53
2022-10-22T16:18:31.928Z,101089.00
2022-10-22T16:20:58.448Z,101098.13
2022-10-22T16:23:24.970Z,101099.91
2022-10-22T16:25:52.828Z,101098.97
2022-10-22T16:28:19.325Z,101109.81
2022-10-22T16:30:45.939Z,101105.28
2022-10-22T16:33:12.389Z,101107.72
2022-10-22T16:35:40.552Z,101102.31
2022-10-22T16:38:07.404Z,101110.19
2022-10-22T16:40:33.979Z,101104.63
2022-10-22T16:43:01.860Z,101108.09
2022-10-22T16:45:28.379Z,101118.91
2022-10-22T16:47:54.921Z,101115.88
2022-10-22T16:50:21.468Z,101126.50
2022-10-22T16:52:47.995Z,101121.56
2022-10-22T16:55:14.516Z,101134.06
2022-10-22T16:57:41.273Z,101139.22
2022-10-22T17:00:11.103Z,101137.88
2022-10-22T17:02:37.695Z,101149.16
2022-10-22T17:05:04.705Z,101148.84
2022-10-22T17:07:31.262Z,101157.22
2022-10-22T17:09:57.770Z,101158.59
2022-10-22T17:12:24.316Z,101160.66
2022-10-22T17:14:50.906Z,101164.59
2022-10-22T17:17:18.747Z,101163.09
2022-10-22T17:19:45.390Z,101161.75
2022-10-22T17:22:14.875Z,101172.16
2022-10-22T17:24:44.180Z,101176.28
2022-10-22T17:27:10.730Z,101175.97
2022-10-22T17:29:37.377Z,101177.34
2022-10-22T17:32:04.107Z,101174.97
2022-10-22T17:34:32.361Z,101191.00
2022-10-22T17:36:58.974Z,101191.34
2022-10-22T17:39:26.699Z,101188.97
2022-10-22T17:41:53.268Z,101192.03
2022-10-22T17:44:19.774Z,101195.78
2022-10-22T17:46:46.277Z,101199.38
2022-10-22T17:49:16.411Z,101196.63
2022-10-22T17:51:44.368Z,101202.25
2022-10-22T17:54:11.987Z,101204.13
2022-10-22T17:56:39.262Z,101203.28
2022-10-22T17:59:06.246Z,101204.97
2022-10-22T18:01:34.780Z,101206.69
2022-10-22T18:04:03.956Z,101208.41
2022-10-22T18:06:31.076Z,101212.66
2022-10-22T18:08:59.118Z,101200.75
2022-10-22T18:11:27.588Z,101216.09
2022-10-22T18:13:56.043Z,101217.81
2022-10-22T18:16:23.254Z,101213.16
2022-10-22T18:18:51.780Z,101214.88
2022-10-22T18:21:19.010Z,101221.34
2022-10-22T18:23:45.861Z,101216.75
2022-10-22T18:26:13.924Z,101210.44
2022-10-22T18:28:40.592Z,101216.09
2022-10-22T18:31:09.363Z,101215.25
2022-10-22T18:33:37.255Z,101213.66
2022-10-22T18:36:05.920Z,101211.28
2022-10-22T18:38:32.544Z,101215.22
2022-10-22T18:40:59.163Z,101212.81
2022-10-22T18:43:27.970Z,101211.47
2022-10-22T18:45:54.562Z,101213.53
2022-10-22T18:48:21.363Z,101211.16
2022-10-22T18:50:48.302Z,101217.97
2022-10-22T18:53:16.056Z,101209.50
2022-10-22T18:55:42.748Z,101215.28
2022-10-22T18:58:09.209Z,101211.03
2022-10-22T19:00:37.186Z,101212.19
2022-10-22T19:03:04.022Z,101219.03
2022-10-22T19:05:30.975Z,101211.22
2022-10-22T19:07:57.773Z,101214.09
2022-10-22T19:10:24.345Z,101211.72
2022-10-22T19:12:50.828Z,101223.81
2022-10-22T19:15:17.811Z,101227.91
2022-10-22T19:17:45.796Z,101229.09
2022-10-22T19:20:13.141Z,101224.16
2022-10-22T19:22:39.645Z,101237.78
2022-10-22T19:25:09.728Z,101244.25
2022-10-22T19:27:38.778Z,101240.84
2022-10-22T19:30:06.517Z,101243.59
2022-10-22T19:32:33.009Z,101242.56
2022-10-22T19:35:00.902Z,101241.34
2022-10-22T19:37:27.598Z,101242.91
2022-10-22T19:39:54.268Z,101251.75
2022-10-22T19:42:20.716Z,101258.56
2022-10-22T19:44:47.216Z,101258.41
2022-10-22T19:47:13.744Z,101260.94
2022-10-22T19:49:40.466Z,101257.88
2022-10-22T19:52:08.416Z,101263.00
2022-10-22T19:54:34.950Z,101261.78
2022-10-22T19:59:33.044Z,101265.91
2022-10-22T20:01:59.533Z,101270.31
2022-10-22T20:04:26.375Z,101275.59
2022-10-22T20:06:52.893Z,101275.59
2022-10-22T20:09:20.778Z,101284.47
2022-10-22T20:11:47.471Z,101279.00
2022-10-22T20:14:14.199Z,101283.41
2022-10-22T20:16:41.396Z,101285.13
2022-10-22T20:19:08.670Z,101291.44
2022-10-22T20:21:35.269Z,101287.50
2022-10-22T20:24:02.015Z,101291.09
2022-10-22T20:26:29.874Z,101297.22
2022-10-22T20:28:57.665Z,101304.41
2022-10-22T20:31:25.812Z,101306.06
2022-10-22T20:33:52.464Z,101305.22
2022-10-22T20:36:21.892Z,101310.50
2022-10-22T20:38:49.045Z,101313.25
2022-10-22T20:41:18.107Z,101311.38
2022-10-22T20:43:46.708Z,101309.50
2022-10-22T20:46:17.612Z,101322.94
2022-10-22T20:48:44.535Z,101325.66
2022-10-22T20:51:12.066Z,101322.94
2022-10-22T20:53:38.656Z,101329.09
2022-10-22T20:56:05.411Z,101331.81
2022-10-22T20:58:31.982Z,101332.50
2022-10-22T21:00:59.940Z,101332.16
2022-10-22T21:03:26.587Z,101334.88
2022-10-22T21:05:53.182Z,101332.16
2022-10-22T21:08:19.765Z,101330.09
2022-10-22T21:10:46.538Z,101338.28
2022-10-22T21:13:13.322Z,101340.00
2022-10-22T21:15:39.791Z,101341.00
2022-10-22T21:18:08.116Z,101337.44
2022-10-22T21:20:34.640Z,101341.00
2022-10-22T21:23:01.210Z,101342.06
2022-10-22T21:25:27.865Z,101343.72
2022-10-22T21:27:54.400Z,101342.91
2022-10-22T21:30:20.867Z,101340.34
2022-10-22T21:32:47.388Z,101344.25
2022-10-22T21:35:15.538Z,101335.25
2022-10-22T21:37:42.193Z,101340.69
2022-10-22T21:40:09.966Z,101341.72
2022-10-22T21:42:36.642Z,101346.47
2022-10-22T21:45:03.604Z,101349.38
2022-10-22T21:47:30.255Z,101346.81
2022-10-22T21:49:56.729Z,101354.13
2022-10-22T21:52:24.571Z,101362.66
2022-10-22T21:54:51.132Z,101356.72
2022-10-22T21:57:17.623Z,101357.88
2022-10-22T21:59:44.159Z,101357.22
2022-10-22T22:02:10.710Z,101351.22
2022-10-22T22:04:37.237Z,101355.16
2022-10-22T22:07:03.708Z,101350.22
2022-10-22T22:09:31.819Z,101348.00
2022-10-22T22:11:58.291Z,101355.66
2022-10-22T22:14:24.835Z,101351.56
2022-10-22T22:16:51.374Z,101351.91
2022-10-22T22:19:17.903Z,101354.94
2022-10-22T22:21:44.404Z,101350.84
2022-10-22T22:24:12.753Z,101350.19
2022-10-22T22:26:41.100Z,101350.69
2022-10-22T22:29:07.637Z,101347.44
2022-10-22T22:31:35.326Z,101347.09
2022-10-22T22:34:03.315Z,101344.69
2022-10-22T22:36:33.800Z,101344.16
2022-10-22T22:39:00.437Z,101351.13
2022-10-22T22:41:26.908Z,101352.47
2022-10-22T22:46:26.708Z,101352.44
2022-10-22T22:48:53.272Z,101341.03
2022-10-22T22:51:20.028Z,101342.38
2022-10-22T22:53:46.699Z,101338.25
2022-10-22T22:56:15.277Z,101346.06
2022-10-22T22:58:42.047Z,101350.97
2022-10-22T23:01:15.890Z,101355.72
2022-10-22T23:03:43.589Z,101360.50
2022-10-22T23:06:10.943Z,101357.25
2022-10-22T23:08:37.618Z,101348.22
2022-10-22T23:11:05.648Z,101354.69
2022-10-22T23:13:32.299Z,101364.88
2022-10-22T23:15:58.840Z,101361.47
2022-10-22T23:18:26.760Z,101362.47
2022-10-22T23:20:53.269Z,101360.75
2022-10-22T23:23:19.956Z,101365.69
2022-10-22T23:25:46.550Z,101367.53
2022-10-22T23:28:13.058Z,101373.31
2022-10-22T23:30:42.651Z,101371.59
2022-10-22T23:33:09.252Z,101368.22
2022-10-22T23:35:40.645Z,101377.38
2022-10-22T23:38:07.442Z,101372.09
2022-10-22T23:40:33.984Z,101360.34
2022-10-22T23:43:00.705Z,101366.66
2022-10-22T23:45:27.240Z,101359.34
2022-10-22T23:47:53.730Z,101361.06
2022-10-22T23:50:20.312Z,101356.47
2022-10-22T23:52:48.172Z,101360.72
2022-10-22T23:55:14.699Z,101362.44
2022-10-22T23:57:41.177Z,101345.25
